ENSO/SRP METAR and TAF weather

Enter ICAO airport designator
Station Type Date Time Source
ENSO METAR 2022/12/08 12:50 UTC NOAA

ENSO 081250Z 10002KT 9999 FEW015CB M01/M01 Q1001


Station Type Date Time Source
ENSO Decoded METAR 2022/12/08 12:50 UTC NOAA

Stord / Soerstokken, Norway (ENSO) 59-48N 005-21E
Dec 08, 2022 - 07:50 AM EST / 2022.12.08 1250 UTC
Wind: from the E (100 degrees) at 2 MPH (2 KT):0
Visibility: greater than 7 mile(s):0
Sky conditions: mostly clear
Weather: Cumulonimbus clouds observed
Temperature: 30 F (-1 C)
Dew Point: 30 F (-1 C)
Relative Humidity: 100%
Pressure (altimeter): 29.56 in. Hg (1001 hPa)
ob: ENSO 081250Z 10002KT 9999 FEW015CB M01/M01 Q1001
cycle: 13

Station Type Date Time Source
ENSO TAF UTC NOAA

Error!

Example: see airport list